Time;durP1;ratioP1;P1;durP2;ratioP2;P2;SDS_P1;SDS_P2;PMS_P1;PMS_P2;Temp;Humidity;BMP_temperature;BMP_pressure;BME280_temperature;BME280_humidity;BME280_pressure;Samples;Min_cycle;Max_cycle;Signal;HPM_P1;HPM_P2
2021/12/10 00:00:30;;;;;;;23.57;22.27;;;;;;;;;;5094774;28;20229;-78
2021/12/10 00:02:58;;;;;;;24.57;23.17;;;;;;;;;;5094406;28;20201;-76
2021/12/10 00:05:27;;;;;;;32.87;24.20;;;;;;;;;;5094689;28;20649;-78
2021/12/10 00:07:55;;;;;;;32.50;29.83;;;;;;;;;;5094334;28;20251;-76
2021/12/10 00:10:25;;;;;;;26.43;24.80;;;;;;;;;;5094311;28;20229;-80
2021/12/10 00:12:51;;;;;;;25.23;23.73;;;;;;;;;;5094234;28;20320;-77
2021/12/10 00:15:20;;;;;;;26.27;24.47;;;;;;;;;;5094471;28;20284;-78
2021/12/10 00:17:47;;;;;;;31.83;29.17;;;;;;;;;;5094698;28;20198;-83
2021/12/10 00:20:14;;;;;;;29.50;27.70;;;;;;;;;;5094039;28;20284;-78
2021/12/10 00:22:49;;;;;;;27.00;25.40;;;;;;;;;;5094052;28;20641;-79
2021/12/10 00:25:19;;;;;;;27.00;25.10;;;;;;;;;;5094036;28;20629;-80
2021/12/10 00:27:47;;;;;;;28.73;26.83;;;;;;;;;;5093169;28;20198;-81
2021/12/10 00:30:18;;;;;;;29.03;26.90;;;;;;;;;;5093873;28;20290;-79
2021/12/10 00:32:46;;;;;;;27.13;25.53;;;;;;;;;;5093974;28;20209;-77
2021/12/10 00:35:15;;;;;;;28.20;26.30;;;;;;;;;;5093993;28;20251;-80
2021/12/10 00:37:41;;;;;;;28.37;26.67;;;;;;;;;;5093819;28;20698;-78
2021/12/10 00:40:10;;;;;;;29.47;27.67;;;;;;;;;;5094684;28;20225;-81
2021/12/10 00:42:38;;;;;;;30.83;28.83;;;;;;;;;;5094264;28;20232;-79
2021/12/10 00:45:09;;;;;;;32.17;30.03;;;;;;;;;;5093906;28;20272;-80
2021/12/10 00:47:36;;;;;;;31.47;29.47;;;;;;;;;;5093816;28;20218;-80
2021/12/10 00:50:04;;;;;;;29.00;27.10;;;;;;;;;;5093505;28;20198;-81
2021/12/10 00:52:30;;;;;;;32.30;30.10;;;;;;;;;;5093356;28;20730;-80
2021/12/10 00:54:57;;;;;;;33.83;31.53;;;;;;;;;;5093382;28;20216;-81
2021/12/10 00:57:24;;;;;;;43.50;39.53;;;;;;;;;;5093715;28;20225;-80
2021/12/10 00:59:51;;;;;;;41.27;38.37;;;;;;;;;;5093336;28;20203;-81
2021/12/10 01:02:21;;;;;;;32.40;30.30;;;;;;;;;;5093298;28;20194;-80
2021/12/10 01:04:50;;;;;;;41.00;37.73;;;;;;;;;;5093352;28;20295;-80
2021/12/10 01:07:19;;;;;;;32.03;30.03;;;;;;;;;;5093177;28;20228;-81
2021/12/10 01:09:47;;;;;;;34.57;32.47;;;;;;;;;;5093176;28;20194;-82
2021/12/10 01:12:15;;;;;;;34.97;32.67;;;;;;;;;;5093327;28;20229;-82
2021/12/10 01:14:59;;;;;;;31.63;29.63;;;;;;;;;;5093403;28;20236;-82
2021/12/10 01:25:54;;;;;;;26.80;25.20;;;;;;;;;;5093533;28;20609;-83
2021/12/10 01:28:21;;;;;;;33.73;31.63;;;;;;;;;;5093052;28;20240;-83
2021/12/10 01:30:48;;;;;;;30.97;28.87;;;;;;;;;;5093017;28;20291;-82
2021/12/10 01:33:18;;;;;;;27.93;26.17;;;;;;;;;;5092764;28;20222;-81
2021/12/10 01:35:48;;;;;;;33.80;30.90;;;;;;;;;;5093357;28;20190;-79
2021/12/10 01:38:15;;;;;;;31.83;29.23;;;;;;;;;;5093123;28;20204;-82
2021/12/10 01:40:43;;;;;;;29.03;27.43;;;;;;;;;;5092922;28;20243;-83
2021/12/10 01:43:22;;;;;;;27.93;26.40;;;;;;;;;;5092851;28;20201;-81
2021/12/10 01:45:49;;;;;;;27.70;26.20;;;;;;;;;;5092528;28;20655;-81
2021/12/10 01:48:20;;;;;;;25.57;23.90;;;;;;;;;;5092885;28;20197;-80
2021/12/10 01:50:48;;;;;;;26.97;25.47;;;;;;;;;;5092548;28;20186;-83
2021/12/10 01:53:18;;;;;;;32.63;30.20;;;;;;;;;;5092406;28;20695;-81
2021/12/10 01:55:45;;;;;;;32.20;29.27;;;;;;;;;;5092529;28;20198;-83
2021/12/10 01:58:14;;;;;;;33.13;30.77;;;;;;;;;;5093896;28;20194;-85
2021/12/10 02:00:43;;;;;;;32.70;30.33;;;;;;;;;;5092603;28;20236;-82
2021/12/10 02:03:10;;;;;;;28.57;26.77;;;;;;;;;;5093000;28;20280;-82
2021/12/10 02:05:38;;;;;;;37.07;34.47;;;;;;;;;;5092636;28;20240;-78
2021/12/10 02:08:05;;;;;;;39.20;35.90;;;;;;;;;;5092538;28;20243;-81
2021/12/10 02:10:32;;;;;;;39.83;36.43;;;;;;;;;;5092574;28;20202;-81
2021/12/10 02:12:59;;;;;;;36.40;33.60;;;;;;;;;;5092370;28;20304;-80
2021/12/10 02:15:28;;;;;;;30.47;28.77;;;;;;;;;;5092396;28;20234;-82
2021/12/10 02:17:57;;;;;;;26.53;25.23;;;;;;;;;;5093440;28;20200;-82
2021/12/10 02:20:25;;;;;;;27.53;26.23;;;;;;;;;;5092493;28;20200;-81
2021/12/10 02:22:54;;;;;;;29.23;27.80;;;;;;;;;;5092268;28;20723;-83
2021/12/10 02:25:21;;;;;;;32.10;30.50;;;;;;;;;;5093373;28;20210;-82
2021/12/10 02:27:48;;;;;;;30.20;28.60;;;;;;;;;;5092473;28;20248;-80
2021/12/10 02:30:16;;;;;;;30.20;28.37;;;;;;;;;;5091868;28;20225;-80
2021/12/10 02:32:43;;;;;;;28.33;26.47;;;;;;;;;;5092214;28;20280;-83
2021/12/10 02:35:12;;;;;;;29.23;27.63;;;;;;;;;;5092301;28;20204;-81
2021/12/10 02:37:39;;;;;;;26.77;25.23;;;;;;;;;;5092105;28;20661;-81
2021/12/10 02:40:09;;;;;;;29.90;28.20;;;;;;;;;;5091946;28;20557;-81
2021/12/10 02:42:36;;;;;;;30.00;27.83;;;;;;;;;;5092887;28;20201;-80
2021/12/10 02:45:04;;;;;;;32.23;30.30;;;;;;;;;;5091902;28;20194;-81
2021/12/10 02:47:30;;;;;;;31.57;29.47;;;;;;;;;;5091812;28;20237;-82
2021/12/10 02:49:57;;;;;;;33.03;31.13;;;;;;;;;;5094000;28;20247;-83
2021/12/10 02:52:26;;;;;;;34.23;32.13;;;;;;;;;;5096129;28;20293;-81
2021/12/10 02:54:53;;;;;;;32.90;31.00;;;;;;;;;;5095632;28;20222;-80
2021/12/10 02:57:21;;;;;;;35.40;32.93;;;;;;;;;;5095979;28;20193;-77
2021/12/10 02:59:48;;;;;;;30.03;28.23;;;;;;;;;;5095705;28;20198;-82
2021/12/10 03:02:17;;;;;;;30.07;27.10;;;;;;;;;;5095768;28;20189;-82
2021/12/10 03:04:44;;;;;;;33.90;31.30;;;;;;;;;;5095623;28;20198;-82
2021/12/10 03:07:14;;;;;;;31.43;29.53;;;;;;;;;;5095799;28;20207;-85
2021/12/10 03:09:42;;;;;;;35.17;32.87;;;;;;;;;;5095492;28;20577;-78
2021/12/10 03:12:09;;;;;;;33.03;31.13;;;;;;;;;;5095481;28;20240;-82
2021/12/10 03:14:42;;;;;;;27.47;25.97;;;;;;;;;;5095632;28;20649;-86
2021/12/10 03:17:11;;;;;;;32.53;30.20;;;;;;;;;;5095658;28;20274;-80
2021/12/10 03:19:38;;;;;;;42.10;32.53;;;;;;;;;;5095499;28;20198;-82
2021/12/10 03:22:05;;;;;;;28.83;26.70;;;;;;;;;;5095847;28;20721;-83
2021/12/10 03:24:32;;;;;;;27.27;25.87;;;;;;;;;;5095583;28;20225;-86
2021/12/10 03:27:01;;;;;;;38.10;35.90;;;;;;;;;;5095460;28;20194;-83
2021/12/10 03:29:28;;;;;;;36.93;34.73;;;;;;;;;;5096910;28;20229;-86
2021/12/10 03:31:58;;;;;;;32.53;30.57;;;;;;;;;;5097692;28;20237;-88
2021/12/10 03:34:24;;;;;;;35.20;33.20;;;;;;;;;;5096791;28;20268;-76
2021/12/10 03:36:52;;;;;;;34.23;32.13;;;;;;;;;;5095633;28;20255;-79
2021/12/10 03:39:20;;;;;;;32.53;30.63;;;;;;;;;;5103790;28;20194;-86
2021/12/10 03:41:48;;;;;;;38.50;36.20;;;;;;;;;;5095948;28;20197;-83
2021/12/10 03:44:15;;;;;;;33.43;31.47;;;;;;;;;;5096006;28;20285;-78
2021/12/10 03:46:42;;;;;;;36.90;34.70;;;;;;;;;;5095567;28;20284;-82
2021/12/10 03:49:10;;;;;;;32.90;30.90;;;;;;;;;;5095288;28;20198;-89
2021/12/10 03:51:37;;;;;;;36.10;33.70;;;;;;;;;;5095075;28;20255;-87
2021/12/10 03:54:05;;;;;;;33.93;31.87;;;;;;;;;;5095006;28;20314;-83
2021/12/10 03:56:32;;;;;;;34.17;32.10;;;;;;;;;;5098444;28;20201;-87
2021/12/10 03:59:01;;;;;;;34.50;31.33;;;;;;;;;;5099039;28;20626;-86
2021/12/10 04:01:30;;;;;;;31.10;29.30;;;;;;;;;;5094638;28;20230;-76
2021/12/10 04:03:57;;;;;;;31.70;29.87;;;;;;;;;;5094651;28;20198;-87
2021/12/10 04:06:26;;;;;;;35.07;32.47;;;;;;;;;;5095163;28;20240;-77
2021/12/10 04:08:53;;;;;;;30.67;28.87;;;;;;;;;;5094462;28;20190;-89
2021/12/10 04:11:20;;;;;;;31.07;29.17;;;;;;;;;;5094712;28;20211;-77
2021/12/10 04:13:50;;;;;;;27.90;26.20;;;;;;;;;;5094563;28;20314;-82
2021/12/10 04:16:18;;;;;;;27.00;25.40;;;;;;;;;;5094323;28;20193;-88
2021/12/10 04:18:45;;;;;;;26.47;24.77;;;;;;;;;;5094495;28;20197;-79
2021/12/10 04:21:13;;;;;;;25.63;24.10;;;;;;;;;;5094591;28;20201;-83
2021/12/10 04:23:42;;;;;;;25.20;23.70;;;;;;;;;;5094591;28;20209;-90
2021/12/10 04:26:09;;;;;;;26.90;25.30;;;;;;;;;;5094459;28;20198;-82
2021/12/10 04:28:35;;;;;;;25.27;23.77;;;;;;;;;;5095043;28;20202;-86
2021/12/10 04:31:02;;;;;;;27.57;25.97;;;;;;;;;;5093814;28;20230;-81
2021/12/10 04:33:29;;;;;;;27.83;26.23;;;;;;;;;;5094204;28;20255;-89
2021/12/10 04:35:57;;;;;;;27.77;26.17;;;;;;;;;;5094228;28;20277;-87
2021/12/10 04:38:25;;;;;;;22.73;21.43;;;;;;;;;;5093718;28;20255;-83
2021/12/10 04:40:56;;;;;;;22.40;21.10;;;;;;;;;;5093971;28;20197;-80
2021/12/10 04:43:24;;;;;;;22.30;21.10;;;;;;;;;;5094133;28;20216;-88
2021/12/10 04:45:52;;;;;;;21.10;19.90;;;;;;;;;;5094397;28;20190;-82
2021/12/10 04:48:19;;;;;;;21.13;19.93;;;;;;;;;;5093695;28;20197;-88
2021/12/10 04:50:46;;;;;;;22.20;21.00;;;;;;;;;;5094132;28;20271;-88
2021/12/10 04:53:13;;;;;;;23.97;22.47;;;;;;;;;;5093582;28;20194;-79
2021/12/10 04:55:40;;;;;;;23.17;21.97;;;;;;;;;;5093610;28;20236;-86
2021/12/10 04:58:09;;;;;;;24.17;22.80;;;;;;;;;;5093616;28;20198;-77
2021/12/10 05:00:37;;;;;;;22.20;21.10;;;;;;;;;;5093433;28;20198;-82
2021/12/10 05:03:05;;;;;;;23.80;22.50;;;;;;;;;;5093642;28;20201;-89
2021/12/10 05:05:32;;;;;;;24.63;23.33;;;;;;;;;;5093579;28;20255;-80
2021/12/10 05:07:59;;;;;;;23.77;22.47;;;;;;;;;;5093945;28;20197;-86
2021/12/10 05:10:26;;;;;;;22.87;21.67;;;;;;;;;;5093624;28;20227;-78
2021/12/10 05:12:53;;;;;;;26.13;24.73;;;;;;;;;;5092664;28;20675;-85
2021/12/10 05:15:22;;;;;;;26.33;24.83;;;;;;;;;;5093180;28;20226;-79
2021/12/10 05:17:50;;;;;;;24.33;22.93;;;;;;;;;;5093539;28;20247;-89
2021/12/10 05:20:18;;;;;;;25.60;24.10;;;;;;;;;;5093076;28;20244;-87
2021/12/10 05:22:46;;;;;;;26.23;24.73;;;;;;;;;;5093504;28;20651;-88
2021/12/10 05:25:13;;;;;;;25.10;23.60;;;;;;;;;;5093749;28;20201;-84
2021/12/10 05:27:41;;;;;;;26.30;24.80;;;;;;;;;;5093383;28;20730;-77
2021/12/10 05:30:09;;;;;;;29.07;27.47;;;;;;;;;;5092934;28;20244;-88
2021/12/10 05:32:37;;;;;;;27.20;25.70;;;;;;;;;;5093012;28;20229;-88
2021/12/10 05:35:05;;;;;;;25.57;24.17;;;;;;;;;;5092928;28;20226;-89
2021/12/10 05:37:31;;;;;;;26.40;24.90;;;;;;;;;;5093616;28;20205;-78
2021/12/10 05:39:58;;;;;;;25.20;23.80;;;;;;;;;;5093567;28;20194;-89
2021/12/10 05:42:25;;;;;;;28.57;27.07;;;;;;;;;;5093112;28;20194;-81
2021/12/10 05:44:52;;;;;;;27.67;26.17;;;;;;;;;;5092649;28;20285;-78
2021/12/10 05:47:19;;;;;;;26.20;24.70;;;;;;;;;;5092727;28;20285;-85
2021/12/10 05:49:48;;;;;;;25.13;23.73;;;;;;;;;;5093205;28;20568;-89
2021/12/10 05:52:15;;;;;;;23.13;21.83;;;;;;;;;;5093109;28;20198;-89
2021/12/10 05:54:43;;;;;;;24.30;22.90;;;;;;;;;;5093127;28;20308;-81
2021/12/10 05:57:10;;;;;;;25.77;24.27;;;;;;;;;;5092766;28;20726;-83
2021/12/10 05:59:37;;;;;;;27.90;26.20;;;;;;;;;;5092676;28;20571;-90
2021/12/10 06:02:05;;;;;;;26.50;24.90;;;;;;;;;;5092861;28;20679;-83
2021/12/10 06:04:32;;;;;;;27.00;25.50;;;;;;;;;;5092844;28;20228;-90
2021/12/10 06:07:01;;;;;;;27.87;26.27;;;;;;;;;;5093016;28;20193;-91
2021/12/10 06:09:28;;;;;;;30.20;28.43;;;;;;;;;;5093788;28;20194;-90
2021/12/10 06:11:54;;;;;;;28.40;26.80;;;;;;;;;;5093031;28;20198;-79
2021/12/10 06:14:21;;;;;;;28.13;26.53;;;;;;;;;;5093522;28;20235;-90
2021/12/10 06:16:48;;;;;;;33.90;31.57;;;;;;;;;;5092845;28;20262;-89
2021/12/10 06:19:15;;;;;;;29.43;27.60;;;;;;;;;;5092495;28;20225;-88
2021/12/10 06:21:41;;;;;;;26.33;24.73;;;;;;;;;;5093030;28;20197;-90
2021/12/10 06:24:09;;;;;;;24.37;23.07;;;;;;;;;;5092600;28;20205;-90
2021/12/10 06:26:36;;;;;;;21.90;20.70;;;;;;;;;;5097316;28;20263;-90
2021/12/10 06:29:04;;;;;;;22.77;21.57;;;;;;;;;;5096576;28;20289;-78
2021/12/10 06:31:31;;;;;;;22.10;20.90;;;;;;;;;;5097374;28;20228;-83
2021/12/10 06:33:57;;;;;;;21.47;20.37;;;;;;;;;;5096489;28;20284;-89
2021/12/10 06:36:24;;;;;;;22.83;21.53;;;;;;;;;;5096540;28;20572;-89
2021/12/10 06:38:51;;;;;;;23.67;22.47;;;;;;;;;;5096456;28;20200;-89
2021/12/10 06:41:20;;;;;;;24.00;22.80;;;;;;;;;;5096393;28;20198;-88
2021/12/10 06:43:47;;;;;;;21.80;20.70;;;;;;;;;;5096556;28;20201;-90
2021/12/10 06:46:14;;;;;;;23.80;22.60;;;;;;;;;;5097183;28;20229;-83
2021/12/10 06:48:41;;;;;;;26.43;25.03;;;;;;;;;;5096302;28;20227;-89
2021/12/10 06:51:10;;;;;;;26.57;25.17;;;;;;;;;;5096536;28;20190;-87
2021/12/10 06:53:37;;;;;;;29.43;27.63;;;;;;;;;;5097713;28;20248;-82
2021/12/10 06:56:05;;;;;;;29.17;27.53;;;;;;;;;;5096171;28;20279;-80
2021/12/10 06:58:34;;;;;;;29.57;27.67;;;;;;;;;;5096380;28;20197;-83
2021/12/10 07:01:02;;;;;;;26.53;24.93;;;;;;;;;;5096065;28;20196;-85
2021/12/10 07:03:29;;;;;;;23.53;21.73;;;;;;;;;;5096458;28;20201;-82
2021/12/10 07:05:57;;;;;;;30.23;27.87;;;;;;;;;;5096162;28;20198;-77
2021/12/10 07:08:25;;;;;;;25.13;23.73;;;;;;;;;;5095905;28;20204;-83
2021/12/10 07:10:52;;;;;;;25.23;23.73;;;;;;;;;;5099310;28;20193;-81
2021/12/10 07:13:18;;;;;;;23.10;21.80;;;;;;;;;;5105197;28;20565;-84
2021/12/10 07:15:48;;;;;;;21.60;20.40;;;;;;;;;;5095856;28;20257;-86
2021/12/10 07:18:16;;;;;;;24.20;22.23;;;;;;;;;;5095507;28;20194;-77
2021/12/10 07:20:43;;;;;;;22.60;21.30;;;;;;;;;;5096087;28;20385;-77
2021/12/10 07:23:10;;;;;;;23.40;22.10;;;;;;;;;;5096103;28;20742;-87
2021/12/10 07:25:37;;;;;;;25.27;23.43;;;;;;;;;;5096405;28;20251;-83
2021/12/10 07:28:04;;;;;;;23.00;21.70;;;;;;;;;;5095726;28;20642;-83
2021/12/10 07:30:31;;;;;;;25.37;23.77;;;;;;;;;;5095202;28;20312;-87
2021/12/10 07:32:59;;;;;;;23.27;21.90;;;;;;;;;;5095290;28;20726;-85
2021/12/10 07:35:26;;;;;;;23.10;21.13;;;;;;;;;;5094663;28;20226;-81
2021/12/10 07:37:53;;;;;;;21.10;19.90;;;;;;;;;;5095388;28;20198;-85
2021/12/10 07:40:21;;;;;;;20.30;19.20;;;;;;;;;;5099658;28;20219;-77
2021/12/10 07:42:48;;;;;;;21.97;20.23;;;;;;;;;;5106707;28;20220;-85
2021/12/10 07:45:15;;;;;;;20.50;19.27;;;;;;;;;;5100709;28;20198;-77
2021/12/10 07:47:42;;;;;;;25.97;23.53;;;;;;;;;;5094826;28;20660;-82
2021/12/10 07:50:12;;;;;;;22.50;20.67;;;;;;;;;;5095387;28;20189;-85
2021/12/10 07:52:40;;;;;;;20.20;19.10;;;;;;;;;;5095140;28;20190;-81
2021/12/10 07:55:10;;;;;;;20.93;19.83;;;;;;;;;;5095096;28;20233;-81
2021/12/10 07:57:37;;;;;;;26.00;23.63;;;;;;;;;;5095076;28;20246;-78
2021/12/10 08:00:05;;;;;;;19.83;18.80;;;;;;;;;;5095094;28;20276;-83
2021/12/10 08:02:31;;;;;;;28.50;22.70;;;;;;;;;;5094786;28;20263;-81
2021/12/10 08:04:58;;;;;;;20.23;19.00;;;;;;;;;;5094812;28;20230;-82
2021/12/10 08:07:26;;;;;;;21.07;19.87;;;;;;;;;;5095414;28;20229;-83
2021/12/10 08:09:53;;;;;;;18.43;17.43;;;;;;;;;;5095024;28;20198;-82
2021/12/10 08:12:20;;;;;;;20.57;19.40;;;;;;;;;;5094465;28;20323;-84
2021/12/10 08:14:52;;;;;;;21.13;19.93;;;;;;;;;;5094250;28;20775;-84
2021/12/10 08:17:20;;;;;;;18.87;17.40;;;;;;;;;;5094414;28;20685;-86
2021/12/10 08:19:46;;;;;;;29.40;19.83;;;;;;;;;;5094296;28;20660;-84
2021/12/10 08:22:14;;;;;;;19.90;18.03;;;;;;;;;;5094666;28;20271;-85
2021/12/10 08:24:42;;;;;;;15.27;14.53;;;;;;;;;;5094078;28;20201;-82
2021/12/10 08:27:09;;;;;;;17.37;15.97;;;;;;;;;;5094343;28;20194;-81
2021/12/10 08:29:35;;;;;;;14.50;13.70;;;;;;;;;;5094030;28;20308;-78
2021/12/10 08:32:03;;;;;;;15.23;14.43;;;;;;;;;;5094326;28;20243;-83
2021/12/10 08:34:30;;;;;;;12.33;11.93;;;;;;;;;;5093944;28;20294;-81
2021/12/10 08:36:58;;;;;;;12.77;11.73;;;;;;;;;;5094133;28;20256;-80
2021/12/10 08:39:24;;;;;;;11.27;10.87;;;;;;;;;;5094071;28;20227;-78
2021/12/10 08:41:56;;;;;;;12.97;12.47;;;;;;;;;;5093781;28;20233;-81
2021/12/10 08:44:23;;;;;;;12.20;11.80;;;;;;;;;;5093796;28;20186;-81
2021/12/10 08:46:49;;;;;;;12.03;11.57;;;;;;;;;;5093083;28;20197;-82
2021/12/10 08:49:16;;;;;;;11.40;11.00;;;;;;;;;;5093469;28;20688;-81
2021/12/10 08:51:44;;;;;;;12.40;12.00;;;;;;;;;;5093835;28;20225;-79
2021/12/10 08:54:12;;;;;;;16.70;15.90;;;;;;;;;;5093550;28;20220;-81
2021/12/10 08:56:40;;;;;;;16.93;16.23;;;;;;;;;;5093368;28;20232;-80
2021/12/10 08:59:10;;;;;;;17.83;17.03;;;;;;;;;;5093741;28;20625;-79
2021/12/10 09:01:39;;;;;;;18.00;17.00;;;;;;;;;;5093753;28;20265;-80
2021/12/10 09:04:07;;;;;;;18.77;17.73;;;;;;;;;;5093314;28;20648;-80
2021/12/10 09:06:35;;;;;;;18.70;17.90;;;;;;;;;;5093368;28;20233;-79
2021/12/10 09:09:03;;;;;;;19.17;18.27;;;;;;;;;;5093200;28;20194;-79
2021/12/10 09:11:29;;;;;;;21.27;19.97;;;;;;;;;;5093806;28;20201;-79
2021/12/10 09:13:56;;;;;;;20.63;19.53;;;;;;;;;;5093186;28;20229;-80
2021/12/10 09:16:27;;;;;;;20.23;19.23;;;;;;;;;;5093121;28;20236;-79
2021/12/10 09:18:57;;;;;;;23.23;22.03;;;;;;;;;;5093450;28;20228;-79
2021/12/10 09:21:24;;;;;;;24.33;23.00;;;;;;;;;;5093322;28;20317;-79
2021/12/10 09:23:53;;;;;;;21.40;20.30;;;;;;;;;;5093287;28;20198;-78
2021/12/10 09:26:24;;;;;;;26.17;24.83;;;;;;;;;;5093236;28;20194;-79
2021/12/10 09:28:50;;;;;;;21.57;20.47;;;;;;;;;;5093270;28;20232;-78
2021/12/10 09:31:17;;;;;;;19.73;18.83;;;;;;;;;;5092622;28;20738;-78
2021/12/10 09:33:46;;;;;;;24.60;22.77;;;;;;;;;;5093203;28;20243;-78
2021/12/10 09:36:13;;;;;;;25.83;24.33;;;;;;;;;;5092751;28;20715;-78
2021/12/10 09:38:40;;;;;;;31.13;29.23;;;;;;;;;;5093022;28;20223;-77
2021/12/10 09:41:09;;;;;;;32.33;30.33;;;;;;;;;;5092930;28;20728;-77
2021/12/10 09:43:36;;;;;;;33.33;30.67;;;;;;;;;;5092893;28;20225;-78
2021/12/10 09:46:04;;;;;;;33.03;30.53;;;;;;;;;;5092884;28;20194;-78
2021/12/10 09:48:32;;;;;;;31.57;29.80;;;;;;;;;;5092518;28;20201;-78
2021/12/10 09:51:08;;;;;;;22.70;21.50;;;;;;;;;;5092892;28;20202;-78
2021/12/10 09:53:35;;;;;;;19.77;18.67;;;;;;;;;;5092711;28;20651;-78
2021/12/10 09:56:03;;;;;;;23.03;21.73;;;;;;;;;;5092656;28;20329;-77
2021/12/10 09:58:30;;;;;;;27.77;25.20;;;;;;;;;;5092225;28;20197;-77
2021/12/10 10:00:58;;;;;;;27.13;25.30;;;;;;;;;;5092644;28;20237;-77
2021/12/10 10:03:27;;;;;;;35.73;33.33;;;;;;;;;;5092281;28;20672;-77
2021/12/10 10:05:54;;;;;;;40.53;37.80;;;;;;;;;;5092541;28;20740;-77
2021/12/10 10:08:24;;;;;;;52.30;48.47;;;;;;;;;;5092557;28;20611;-78
2021/12/10 10:10:52;;;;;;;52.33;48.63;;;;;;;;;;5092223;28;20186;-77
2021/12/10 10:13:20;;;;;;;37.47;34.87;;;;;;;;;;5092455;28;20281;-78
2021/12/10 10:15:48;;;;;;;30.10;28.27;;;;;;;;;;5092345;28;20253;-78
2021/12/10 10:18:16;;;;;;;28.73;26.50;;;;;;;;;;5092377;28;20964;-78
2021/12/10 10:20:47;;;;;;;25.13;23.90;;;;;;;;;;5092164;28;20194;-78
2021/12/10 10:23:14;;;;;;;19.07;18.27;;;;;;;;;;5092048;28;20644;-78
2021/12/10 10:25:44;;;;;;;20.93;19.87;;;;;;;;;;5092370;28;20201;-78
2021/12/10 10:28:12;;;;;;;19.60;18.70;;;;;;;;;;5092329;28;20204;-78
2021/12/10 10:30:40;;;;;;;21.77;20.70;;;;;;;;;;5092206;28;20226;-78
2021/12/10 10:33:08;;;;;;;22.37;21.17;;;;;;;;;;5091984;28;20557;-78
2021/12/10 10:35:36;;;;;;;23.50;22.20;;;;;;;;;;5092189;28;20706;-78
2021/12/10 10:38:03;;;;;;;22.53;21.50;;;;;;;;;;5092288;28;20202;-78
2021/12/10 10:40:33;;;;;;;20.50;19.60;;;;;;;;;;5092219;28;20275;-79
2021/12/10 10:43:02;;;;;;;18.50;17.70;;;;;;;;;;5092621;28;20194;-78
2021/12/10 10:45:30;;;;;;;22.90;21.80;;;;;;;;;;5091871;28;20200;-79
2021/12/10 10:47:59;;;;;;;24.63;23.13;;;;;;;;;;5092181;28;20197;-79
2021/12/10 10:50:29;;;;;;;24.57;23.27;;;;;;;;;;5092257;28;20194;-79
2021/12/10 10:52:58;;;;;;;24.03;22.73;;;;;;;;;;5092139;28;20281;-78
2021/12/10 10:55:27;;;;;;;22.20;21.10;;;;;;;;;;5091740;28;20194;-79
2021/12/10 10:57:56;;;;;;;28.37;25.93;;;;;;;;;;5091782;28;20266;-78
2021/12/10 11:00:29;;;;;;;20.87;19.87;;;;;;;;;;5092114;28;20251;-78
2021/12/10 11:03:00;;;;;;;22.37;21.17;;;;;;;;;;5091998;28;20241;-78
2021/12/10 11:05:27;;;;;;;23.87;22.67;;;;;;;;;;5092054;28;20196;-78
2021/12/10 11:07:55;;;;;;;26.37;24.77;;;;;;;;;;5092081;28;20198;-78
2021/12/10 11:10:26;;;;;;;26.93;25.23;;;;;;;;;;5092538;28;20251;-78
2021/12/10 11:12:53;;;;;;;29.93;27.07;;;;;;;;;;5095443;28;20251;-78
2021/12/10 11:15:20;;;;;;;33.13;30.20;;;;;;;;;;5095755;28;20258;-78
2021/12/10 11:17:49;;;;;;;22.47;21.30;;;;;;;;;;5095340;28;20226;-77
2021/12/10 11:20:17;;;;;;;19.30;18.40;;;;;;;;;;5095504;28;20616;-77
2021/12/10 11:22:48;;;;;;;26.50;24.53;;;;;;;;;;5095582;28;20226;-77
2021/12/10 11:25:17;;;;;;;19.93;18.93;;;;;;;;;;5095247;28;20667;-77
2021/12/10 11:27:45;;;;;;;26.10;24.70;;;;;;;;;;5095767;28;20646;-76
2021/12/10 11:30:14;;;;;;;26.33;25.10;;;;;;;;;;5095298;28;20275;-77
2021/12/10 11:32:43;;;;;;;28.30;26.90;;;;;;;;;;5095166;28;20284;-76
2021/12/10 11:35:13;;;;;;;29.43;27.73;;;;;;;;;;5095365;28;20319;-76
2021/12/10 11:37:46;;;;;;;25.53;24.47;;;;;;;;;;5095260;28;20748;-76
2021/12/10 11:40:25;;;;;;;40.63;38.43;;;;;;;;;;5095255;28;20252;-76
2021/12/10 11:42:57;;;;;;;28.87;26.47;;;;;;;;;;5094942;28;20197;-75
2021/12/10 11:45:34;;;;;;;25.33;24.13;;;;;;;;;;5094856;28;20189;-76
2021/12/10 11:48:11;;;;;;;16.30;15.40;;;;;;;;;;5095995;28;20243;-75
2021/12/10 11:50:42;;;;;;;15.40;14.80;;;;;;;;;;5095381;28;20182;-75
2021/12/10 11:53:10;;;;;;;24.63;23.20;;;;;;;;;;5095068;28;20607;-75
2021/12/10 11:55:37;;;;;;;13.80;13.37;;;;;;;;;;5094522;28;20682;-76
2021/12/10 11:58:04;;;;;;;19.73;18.83;;;;;;;;;;5094907;28;20198;-76
2021/12/10 12:00:33;;;;;;;21.83;20.63;;;;;;;;;;5094855;28;20249;-76
2021/12/10 12:03:01;;;;;;;25.43;24.03;;;;;;;;;;5094868;28;20193;-75
2021/12/10 12:05:29;;;;;;;23.07;21.87;;;;;;;;;;5094499;28;20247;-76
2021/12/10 12:08:00;;;;;;;40.77;37.13;;;;;;;;;;5094671;28;20687;-75
2021/12/10 12:10:31;;;;;;;24.10;22.90;;;;;;;;;;5094968;28;20251;-75
2021/12/10 12:12:59;;;;;;;25.33;23.63;;;;;;;;;;5094314;28;20193;-75
2021/12/10 12:15:28;;;;;;;19.67;18.77;;;;;;;;;;5094234;28;20575;-75
2021/12/10 12:17:56;;;;;;;18.87;18.07;;;;;;;;;;5094415;28;20229;-75
2021/12/10 12:20:31;;;;;;;18.90;18.10;;;;;;;;;;5094547;28;20194;-75
2021/12/10 12:25:46;;;;;;;20.40;19.30;;;;;;;;;;5094553;28;20181;-75
2021/12/10 12:28:14;;;;;;;20.00;19.10;;;;;;;;;;5094004;28;20280;-75
2021/12/10 12:30:51;;;;;;;20.23;18.90;;;;;;;;;;5093922;28;20308;-75
2021/12/10 12:33:18;;;;;;;16.90;16.20;;;;;;;;;;5094216;28;20194;-75
2021/12/10 12:35:45;;;;;;;17.93;17.13;;;;;;;;;;5093880;28;20229;-75
2021/12/10 12:38:15;;;;;;;14.33;13.77;;;;;;;;;;5093825;28;20232;-75
2021/12/10 12:40:43;;;;;;;16.33;15.53;;;;;;;;;;5093856;28;20216;-75
2021/12/10 12:43:10;;;;;;;22.07;20.00;;;;;;;;;;5093718;28;20658;-74
2021/12/10 12:45:38;;;;;;;17.83;17.13;;;;;;;;;;5093650;28;20281;-75
2021/12/10 12:48:07;;;;;;;20.23;19.33;;;;;;;;;;5093665;28;20284;-75
2021/12/10 12:50:34;;;;;;;18.10;17.40;;;;;;;;;;5093603;28;20189;-75
2021/12/10 12:53:02;;;;;;;33.30;31.80;;;;;;;;;;5093921;28;20194;-76
2021/12/10 12:55:38;;;;;;;36.73;34.63;;;;;;;;;;5093446;28;20679;-75
2021/12/10 12:58:08;;;;;;;38.03;35.37;;;;;;;;;;5093709;28;20270;-75
2021/12/10 13:00:37;;;;;;;34.83;32.93;;;;;;;;;;5093953;28;20194;-75
2021/12/10 13:03:07;;;;;;;30.90;28.00;;;;;;;;;;5093883;28;20281;-75
2021/12/10 13:05:36;;;;;;;17.87;17.17;;;;;;;;;;5093910;28;20198;-75
2021/12/10 13:08:07;;;;;;;20.03;18.83;;;;;;;;;;5093418;28;20612;-76
2021/12/10 13:10:38;;;;;;;20.97;19.63;;;;;;;;;;5093228;28;20200;-76
2021/12/10 13:13:13;;;;;;;36.10;34.30;;;;;;;;;;5093190;28;20243;-75
2021/12/10 13:15:46;;;;;;;32.43;30.83;;;;;;;;;;5093975;28;20190;-75
2021/12/10 13:18:13;;;;;;;32.70;30.90;;;;;;;;;;5092982;28;20214;-75
2021/12/10 13:20:41;;;;;;;30.57;29.17;;;;;;;;;;5093838;28;20197;-75
2021/12/10 13:23:10;;;;;;;26.93;25.37;;;;;;;;;;5092928;28;20229;-75
2021/12/10 13:25:39;;;;;;;18.40;17.70;;;;;;;;;;5093398;28;20342;-75
2021/12/10 13:28:07;;;;;;;16.03;15.43;;;;;;;;;;5092869;28;20190;-75
2021/12/10 13:30:35;;;;;;;23.13;21.60;;;;;;;;;;5092956;28;20275;-75
2021/12/10 13:33:03;;;;;;;20.23;19.27;;;;;;;;;;5092762;28;20256;-75
2021/12/10 13:35:32;;;;;;;15.20;14.70;;;;;;;;;;5093299;28;20194;-75
2021/12/10 13:38:01;;;;;;;77.47;49.33;;;;;;;;;;5092924;28;20308;-75
2021/12/10 13:40:29;;;;;;;17.60;16.63;;;;;;;;;;5092916;28;20189;-75
2021/12/10 13:43:01;;;;;;;21.80;21.00;;;;;;;;;;5093002;28;20201;-75
2021/12/10 13:45:28;;;;;;;21.07;19.97;;;;;;;;;;5093153;28;20277;-75
2021/12/10 13:48:02;;;;;;;17.97;16.63;;;;;;;;;;5092798;28;20208;-75
2021/12/10 13:50:29;;;;;;;23.73;22.73;;;;;;;;;;5092919;28;20246;-74
2021/12/10 13:52:59;;;;;;;15.90;14.93;;;;;;;;;;5093014;28;20297;-75
2021/12/10 13:55:27;;;;;;;19.63;18.87;;;;;;;;;;5092458;28;20213;-76
2021/12/10 13:58:12;;;;;;;20.57;19.77;;;;;;;;;;5092411;28;20313;-75
2021/12/10 14:00:42;;;;;;;19.13;18.43;;;;;;;;;;5092701;28;20218;-75
2021/12/10 14:03:08;;;;;;;20.57;19.53;;;;;;;;;;5092645;28;20229;-74
2021/12/10 14:05:37;;;;;;;25.37;24.37;;;;;;;;;;5092622;28;20204;-74
2021/12/10 14:08:08;;;;;;;16.07;15.47;;;;;;;;;;5092558;28;20196;-75
2021/12/10 14:10:39;;;;;;;17.43;16.73;;;;;;;;;;5092254;28;20224;-74
2021/12/10 14:13:06;;;;;;;17.00;16.30;;;;;;;;;;5092203;28;20198;-75
2021/12/10 14:15:41;;;;;;;17.83;17.03;;;;;;;;;;5092531;28;20272;-75
2021/12/10 14:18:10;;;;;;;18.40;17.60;;;;;;;;;;5092137;28;20217;-75
2021/12/10 14:20:38;;;;;;;15.50;14.90;;;;;;;;;;5092433;28;20198;-74
2021/12/10 14:23:07;;;;;;;15.70;15.10;;;;;;;;;;5092386;28;20202;-75
2021/12/10 14:25:36;;;;;;;16.43;15.73;;;;;;;;;;5092700;28;20800;-74
2021/12/10 14:28:06;;;;;;;17.90;17.10;;;;;;;;;;5091980;28;20289;-75
2021/12/10 14:30:38;;;;;;;16.50;15.83;;;;;;;;;;5092147;28;20226;-75
2021/12/10 14:33:07;;;;;;;14.43;13.93;;;;;;;;;;5092459;28;20214;-74